Hlavní strana
METAR-TAF:

METAR-TAF

Letiště :

Olney-Noble Airport

Olney-Noble, Illinois, Spojené státy americké

zeměpisná šířka: 38-43-19N, zeměpisná délka: 088-10-35W, výška: 147 m

Aktuální stav počasí

Zpráva byla vytvořena před 25 minutami, v 10:55 UTC
Západojihozápadní vítr 8 kt
Teplota -1°C
Vlhkost vzduchu 93%
Tlak 1021 hPa
Viditelnost: 16.1 km
Polojasno ve výšce 2000 ft
Zataženo ve výšce 3200 ft

METAR: KOLY 181055Z AUTO 25008KT 10SM SCT020 OVC032 M01/M02 A3016 RMK AO2 T10081023

Čas: 05:20 (11:20 UTC)


TAF: chybějící

Stav a předpovědi počasí z více než 4 000 letišť (zprávy METAR a TAF).

Červené a žluté tečky na mapě představují dostupné meteorologické stanice.

Když kurzor umístíte na tečku, zobrazí se název stanice.

Pak kliknutím zobrazíte stav a předpověď počasí.

Chcete-li změnit mapu, kliknutím na zelené tlačítko se znaménkem +mapu přiblížíte, kliknutím na zelené tlačítko se znaménkem – mapu oddálíte a kliknutím na zelené šipky přejdete na sousední mapy.


METAR-TAF: